Bloomington, IN

5:15 PM EST on December 21, 2014 (GMT -0500)
Indianapolis International | Change Station
CLOSE
Current Station
Airport
Location: Indianapolis,
Elevation: 807 ft
Nearby Weather Stations

Elev 807 ft 39.71 °N, 86.30 °W | Updated 21 minutes ago

Partly Cloudy
Partly Cloudy
34 °F
Feels Like 27 °F
N
8
Wind Variable Wind from ESE

Today
High -- | Low -- °F
--% Chance of Precip.
Yesterday
High -- | Low -- °F
Precip. -- in
8:01 AM 5:26 PM
Waning Crescent, 0% visible
Pressure 30.16 in
Visibility 6.0 miles
Clouds Mostly Cloudy 25000 ft
Windchill 27 °F
Dew Point 27 °F
Humidity 75%
Rainfall 0.00 in
Snow Depth Not available.
UV 0 out of 12
Pollen .10 out of 12
Air Quality Not available.
Flu Activity Not available.
METAR KIND 212154Z 12007KT 6SM HZ BKN250 01/M03 A3014 RMK AO2 SLP213 T00111028

More Conditions Fewer Conditions

Pressure 30.16 in
Visibility 6.0 miles
Clouds Mostly Cloudy 25000 ft
Windchill 27 °F
Dew Point 27 °F
Humidity 75%
Rainfall 0.00 in
Snow Depth Not available.
UV 0 out of 12
Pollen .10 out of 12
Air Quality Not available.
Flu Activity Not available.
METAR KIND 212154Z 12007KT 6SM HZ BKN250 01/M03 A3014 RMK AO2 SLP213 T00111028

More Conditions Fewer Conditions

10-Day Weather Forecast

Almanac

Astronomy

Dec. 21, 2014 Rise Set
Actual Time
Civil Twilight
Nautical Twilight
Astronomical Twilight
Moon
Length of Visible Light
Length of Day
Tomorrow will be .
, % of the Moon is Illuminated

Today's Extremes

State Highs State Lows

Community

WunderPhotos

Upload Photos

1,779,498 photos uploaded!

WunderBlogs® & News

Nearby

Air Quality

  Air Quality AQ Index Pollutant
Not available.

Snow Depth

Station Depth Elevation

Earthquake Activity

City Distance Mag. Time & Date
Minimum magnitude displayed is 2.5.

Coastal Water Temperatures

Place Temperature

Nearby Weather Stations